Charter Quote
Worldwide +1-877-727-2538 Call
Select Language Lang
SAFETY RELIABILITY EXPERIENCE

Private Jet Charter Services - Taiping (ZYHB)

Paramount Business Jets offers private jet charter flights and luxury airliner charters to and from Taiping.

AIRPORT INFORMATION
ICAOZYHB
LOCATIONHarbin, China
FACILITY TYPEAIRPORT

At Paramount Business Jets you can hire chartered private jets to and from Taiping with as little as 4 hours of notice. All flights booked via Paramount Business Jets are operated by certified direct air carriers that meet and exceed the FAA part 135 and 121 protocol or a foreign equivalent safety authority. Furthermore, Paramount Business Jets subscribes to ARGUS for their third party safety checks of operators, aircraft, and crews prior each and every flight to and from Taiping and worldwide.

  • Quote a trip using Taiping or call us 24/7 - 365 days a year at +1-877-727-2538.
Questions? Call +1-877-727-2538

METAR Weather Data at Taiping, ZYHB

STATIONZYHB
OBSERVEDTue Jul 16, 03:00 UTC
NOWTue Jul 16, 04:00 UTC
AGE60 min ago
WINDSSW at 9 mph
VISIBILITY16 miles
CLOUDSscattered clouds
TEMP81°F (27°C)
DEWPT72°F (22°C)
HUMIDITY74%
HEAT INDEX85°F (29°C)
BAROMETER1007 hPa (29.74 in Hg)
METARZYHB 160300Z 20004MPS 9999 SCT033 27/22 Q1007 NOSIG

Call us on +1-877-727-2538 (24 Hours) to Hire a Private Jet or Get a Quick Quote.

Find Airports Near any Location

Processing
...